createdAt,value
2022-10-20T00:00:15.607Z,11.47
2022-10-20T00:03:19.866Z,11.45
2022-10-20T00:06:24.367Z,11.44
2022-10-20T00:09:27.276Z,11.52
2022-10-20T00:12:29.863Z,11.57
2022-10-20T00:15:32.460Z,11.58
2022-10-20T00:18:36.838Z,11.57
2022-10-20T00:21:39.633Z,11.50
2022-10-20T00:24:42.363Z,11.43
2022-10-20T00:27:45.044Z,11.35
2022-10-20T00:30:47.760Z,11.30
2022-10-20T00:33:51.978Z,11.32
2022-10-20T00:36:54.725Z,11.32
2022-10-20T00:39:57.302Z,11.35
2022-10-20T00:42:59.962Z,11.29
2022-10-20T00:46:02.838Z,11.30
2022-10-20T00:49:09.587Z,11.26
2022-10-20T00:52:12.587Z,11.28
2022-10-20T00:55:20.849Z,11.24
2022-10-20T00:58:23.594Z,11.16
2022-10-20T01:01:26.351Z,11.10
2022-10-20T01:04:31.910Z,11.04
2022-10-20T01:07:34.854Z,11.06
2022-10-20T01:10:42.237Z,11.06
2022-10-20T01:13:52.794Z,11.02
2022-10-20T01:17:01.527Z,10.93
2022-10-20T01:20:24.605Z,10.91
2022-10-20T01:23:47.501Z,10.95
2022-10-20T01:27:27.505Z,10.95
2022-10-20T01:30:32.722Z,10.99
2022-10-20T01:33:40.447Z,10.98
2022-10-20T01:36:50.414Z,11.04
2022-10-20T01:39:54.820Z,11.03
2022-10-20T01:43:00.770Z,11.05
2022-10-20T01:46:05.274Z,11.10
2022-10-20T01:49:08.247Z,11.10
2022-10-20T01:52:11.666Z,11.10
2022-10-20T01:55:16.052Z,11.20
2022-10-20T01:58:48.784Z,11.27
2022-10-20T02:02:11.861Z,11.21
2022-10-20T02:05:21.675Z,11.22
2022-10-20T02:08:29.521Z,11.19
2022-10-20T02:11:39.394Z,11.22
2022-10-20T02:14:42.799Z,11.22
2022-10-20T02:17:48.142Z,11.10
2022-10-20T02:20:53.062Z,11.15
2022-10-20T02:23:56.885Z,11.26
2022-10-20T02:27:02.945Z,11.23
2022-10-20T02:30:07.997Z,11.16
2022-10-20T02:33:12.725Z,11.16
2022-10-20T02:36:19.007Z,11.14
2022-10-20T02:39:21.656Z,11.26
2022-10-20T02:42:24.349Z,11.24
2022-10-20T02:45:27.035Z,11.20
2022-10-20T02:48:30.936Z,11.10
2022-10-20T02:51:33.598Z,11.08
2022-10-20T02:54:36.209Z,11.05
2022-10-20T02:57:39.244Z,11.04
2022-10-20T03:00:42.339Z,11.08
2022-10-20T03:03:46.362Z,11.08
2022-10-20T03:06:48.997Z,11.06
2022-10-20T03:09:51.541Z,11.10
2022-10-20T03:12:54.181Z,11.10
2022-10-20T03:15:56.822Z,11.22
2022-10-20T03:19:03.983Z,11.28
2022-10-20T03:22:09.983Z,11.27
2022-10-20T03:25:12.561Z,11.35
2022-10-20T03:28:21.964Z,11.33
2022-10-20T03:31:24.554Z,11.33
2022-10-20T03:34:28.640Z,11.39
2022-10-20T03:37:31.338Z,11.41
2022-10-20T03:40:33.935Z,11.35
2022-10-20T03:43:36.634Z,11.37
2022-10-20T03:46:39.286Z,11.38
2022-10-20T03:49:46.081Z,11.38
2022-10-20T03:52:49.290Z,11.40
2022-10-20T03:55:52.044Z,11.45
2022-10-20T03:58:54.850Z,11.50
2022-10-20T04:01:57.649Z,11.55
2022-10-20T04:05:02.153Z,11.61
2022-10-20T04:08:05.271Z,11.73
2022-10-20T04:11:07.969Z,11.84
2022-10-20T04:14:10.840Z,11.90
2022-10-20T04:17:13.530Z,11.92
2022-10-20T04:20:17.626Z,12.04
2022-10-20T04:23:20.357Z,12.21
2022-10-20T04:26:24.066Z,12.29
2022-10-20T04:29:26.593Z,12.40
2022-10-20T04:32:29.434Z,12.52
2022-10-20T04:35:34.184Z,12.49
2022-10-20T04:38:36.913Z,12.52
2022-10-20T04:41:39.565Z,12.55
2022-10-20T04:44:42.161Z,12.59
2022-10-20T04:47:44.827Z,12.64
2022-10-20T04:50:48.787Z,12.61
2022-10-20T04:53:51.383Z,12.68
2022-10-20T04:56:54.077Z,12.66
2022-10-20T04:59:56.834Z,12.67
2022-10-20T05:02:59.672Z,12.73
2022-10-20T05:06:16.038Z,12.76
2022-10-20T05:09:18.625Z,12.70
2022-10-20T05:12:21.535Z,12.68
2022-10-20T05:15:24.328Z,12.71
2022-10-20T05:18:27.030Z,12.70
2022-10-20T05:21:32.558Z,12.70
2022-10-20T05:24:35.390Z,12.69
2022-10-20T05:27:37.982Z,12.62
2022-10-20T05:33:45.742Z,12.54
2022-10-20T05:36:49.666Z,12.49
2022-10-20T05:39:52.388Z,12.44
2022-10-20T05:42:55.269Z,12.42
2022-10-20T05:45:57.887Z,12.38
2022-10-20T05:49:01.936Z,12.46
2022-10-20T05:52:06.130Z,12.46
2022-10-20T05:55:10.469Z,12.43
2022-10-20T05:58:13.271Z,12.48
2022-10-20T06:01:19.657Z,12.49
2022-10-20T06:04:24.407Z,12.54
2022-10-20T06:07:28.657Z,12.69
2022-10-20T06:10:31.237Z,12.69
2022-10-20T06:13:34.659Z,12.72
2022-10-20T06:16:37.761Z,12.84
2022-10-20T06:19:40.499Z,12.82
2022-10-20T06:22:44.750Z,12.96
2022-10-20T06:25:47.449Z,13.01
2022-10-20T06:28:52.543Z,13.07
2022-10-20T06:31:56.102Z,13.11
2022-10-20T06:34:58.657Z,13.17
2022-10-20T06:38:02.576Z,13.17
2022-10-20T06:41:06.549Z,13.27
2022-10-20T06:44:09.528Z,13.31
2022-10-20T06:47:15.866Z,13.34
2022-10-20T06:50:18.831Z,13.37
2022-10-20T06:53:23.150Z,13.41
2022-10-20T06:56:27.209Z,13.43
2022-10-20T06:59:29.820Z,13.45
2022-10-20T07:02:33.161Z,13.54
2022-10-20T07:05:36.087Z,13.74
2022-10-20T07:08:40.277Z,13.92
2022-10-20T07:11:43.306Z,14.09
2022-10-20T07:14:46.114Z,14.26
2022-10-20T07:17:49.958Z,14.34
2022-10-20T07:20:52.969Z,14.55
2022-10-20T07:23:57.643Z,14.78
2022-10-20T07:27:00.516Z,14.95
2022-10-20T07:30:05.049Z,15.10
2022-10-20T07:33:08.197Z,15.21
2022-10-20T07:36:16.430Z,15.29
2022-10-20T07:39:20.624Z,15.35
2022-10-20T07:42:23.238Z,15.42
2022-10-20T07:45:25.846Z,15.53
2022-10-20T07:48:28.675Z,15.59
2022-10-20T07:51:33.131Z,15.80
2022-10-20T07:54:37.565Z,15.95
2022-10-20T07:57:40.751Z,15.77
2022-10-20T08:00:43.390Z,15.70
2022-10-20T08:03:46.068Z,15.74
2022-10-20T08:06:48.835Z,15.75
2022-10-20T08:09:52.950Z,15.79
2022-10-20T08:12:55.673Z,15.95
2022-10-20T08:16:02.277Z,16.11
2022-10-20T08:22:24.385Z,16.54
2022-10-20T08:25:29.077Z,16.74
2022-10-20T08:28:31.786Z,16.94
2022-10-20T08:31:34.438Z,16.98
2022-10-20T08:34:37.692Z,16.92
2022-10-20T08:37:41.182Z,16.86
2022-10-20T08:40:45.158Z,17.07
2022-10-20T08:43:48.402Z,17.10
2022-10-20T08:46:51.648Z,17.35
2022-10-20T08:49:54.164Z,17.56
2022-10-20T08:53:00.555Z,17.58
2022-10-20T08:56:04.595Z,17.79
2022-10-20T08:59:22.223Z,18.01
2022-10-20T09:02:25.017Z,18.19
2022-10-20T09:05:30.703Z,18.37
2022-10-20T09:08:36.589Z,18.05
2022-10-20T09:11:41.198Z,18.23
2022-10-20T09:14:44.125Z,18.37
2022-10-20T09:17:49.380Z,18.67
2022-10-20T09:20:54.764Z,18.78
2022-10-20T09:24:02.038Z,18.90
2022-10-20T09:27:22.387Z,19.00
2022-10-20T09:30:33.357Z,19.21
2022-10-20T09:33:36.553Z,19.07
2022-10-20T09:36:42.027Z,19.21
2022-10-20T09:39:55.373Z,18.94
2022-10-20T09:43:03.152Z,19.03
2022-10-20T09:46:08.072Z,19.05
2022-10-20T09:49:23.832Z,19.01
2022-10-20T09:52:30.546Z,19.29
2022-10-20T09:55:35.274Z,19.45
2022-10-20T09:58:42.138Z,19.70
2022-10-20T10:01:54.561Z,19.76
2022-10-20T10:05:14.696Z,19.98
2022-10-20T10:08:18.042Z,20.34
2022-10-20T10:11:21.443Z,20.66
2022-10-20T10:14:25.621Z,20.81
2022-10-20T10:17:31.634Z,21.22
2022-10-20T10:20:36.472Z,21.31
2022-10-20T10:23:52.304Z,21.52
2022-10-20T10:26:55.517Z,21.69
2022-10-20T10:30:28.542Z,21.32
2022-10-20T10:33:33.108Z,21.35
2022-10-20T10:36:37.571Z,21.03
2022-10-20T10:39:40.219Z,21.29
2022-10-20T10:43:02.838Z,21.89
2022-10-20T10:46:08.646Z,21.99
2022-10-20T10:49:38.941Z,21.90
2022-10-20T10:52:48.570Z,21.66
2022-10-20T10:55:58.424Z,21.86
2022-10-20T10:59:07.242Z,21.77
2022-10-20T11:02:31.005Z,21.51
2022-10-20T11:06:13.336Z,21.33
2022-10-20T11:09:22.797Z,21.24
2022-10-20T11:12:41.244Z,20.93
2022-10-20T11:15:59.392Z,21.02
2022-10-20T11:19:42.288Z,21.03
2022-10-20T11:22:48.974Z,20.99
2022-10-20T11:25:55.246Z,21.41
2022-10-20T11:28:59.343Z,22.01
2022-10-20T11:32:10.501Z,21.99
2022-10-20T11:35:23.090Z,21.81
2022-10-20T11:38:31.555Z,21.55
2022-10-20T11:41:39.401Z,21.24
2022-10-20T11:44:44.577Z,21.20
2022-10-20T11:47:48.117Z,21.26
2022-10-20T11:50:57.986Z,20.96
2022-10-20T11:54:13.174Z,20.93
2022-10-20T11:57:21.689Z,21.06
2022-10-20T12:00:37.465Z,20.82
2022-10-20T12:03:53.426Z,20.82
2022-10-20T12:07:26.137Z,20.76
2022-10-20T12:10:35.002Z,21.00
2022-10-20T12:13:44.881Z,21.08
2022-10-20T12:17:15.428Z,21.00
2022-10-20T12:21:02.216Z,20.62
2022-10-20T12:24:36.738Z,20.62
2022-10-20T12:27:39.334Z,20.58
2022-10-20T12:30:44.387Z,20.52
2022-10-20T12:34:03.866Z,20.71
2022-10-20T12:37:10.396Z,20.82
2022-10-20T12:40:26.798Z,20.82
2022-10-20T12:43:36.333Z,20.60
2022-10-20T12:46:43.442Z,20.32
2022-10-20T12:49:54.745Z,20.17
2022-10-20T12:52:59.387Z,19.96
2022-10-20T12:56:06.925Z,19.82
2022-10-20T12:59:26.344Z,19.75
2022-10-20T13:02:33.843Z,19.49
2022-10-20T13:05:54.166Z,19.07
2022-10-20T13:09:26.909Z,18.88
2022-10-20T13:12:40.962Z,18.93
2022-10-20T13:15:46.183Z,19.01
2022-10-20T13:18:50.792Z,19.16
2022-10-20T13:21:53.820Z,19.19
2022-10-20T13:24:57.398Z,19.09
2022-10-20T13:28:06.915Z,18.97
2022-10-20T13:31:19.430Z,18.98
2022-10-20T13:34:26.574Z,19.11
2022-10-20T13:37:46.221Z,19.55
2022-10-20T13:40:56.128Z,19.77
2022-10-20T13:44:06.244Z,19.83
2022-10-20T13:47:19.460Z,19.99
2022-10-20T13:50:24.278Z,20.01
2022-10-20T13:53:29.205Z,19.98
2022-10-20T13:56:35.785Z,20.11
2022-10-20T13:59:43.134Z,20.30
2022-10-20T14:02:58.468Z,20.38
2022-10-20T14:06:01.261Z,20.43
2022-10-20T14:09:13.751Z,20.40
2022-10-20T14:12:22.839Z,20.36
2022-10-20T14:15:30.519Z,20.23
2022-10-20T14:18:38.202Z,20.12
2022-10-20T14:21:41.934Z,19.94
2022-10-20T14:24:46.386Z,19.77
2022-10-20T14:27:51.497Z,19.51
2022-10-20T14:30:55.602Z,19.41
2022-10-20T14:33:58.567Z,19.43
2022-10-20T14:37:01.851Z,19.38
2022-10-20T14:40:06.166Z,19.12
2022-10-20T14:43:16.305Z,18.95
2022-10-20T14:49:30.529Z,18.84
2022-10-20T14:52:35.534Z,18.85
2022-10-20T14:55:38.479Z,18.90
2022-10-20T14:58:58.194Z,18.86
2022-10-20T15:02:09.260Z,18.75
2022-10-20T15:05:23.797Z,18.72
2022-10-20T15:08:28.814Z,18.62
2022-10-20T15:11:32.876Z,18.57
2022-10-20T15:14:35.983Z,18.60
2022-10-20T15:17:44.505Z,18.58
2022-10-20T15:20:47.891Z,18.51
2022-10-20T15:23:51.492Z,18.43
2022-10-20T15:26:54.714Z,18.33
2022-10-20T15:29:57.369Z,18.25
2022-10-20T15:33:01.593Z,18.14
2022-10-20T15:36:04.543Z,18.11
2022-10-20T15:39:07.313Z,18.11
2022-10-20T15:42:12.022Z,18.09
2022-10-20T15:45:17.273Z,18.09
2022-10-20T15:48:22.274Z,18.04
2022-10-20T15:51:27.478Z,17.91
2022-10-20T15:54:30.383Z,17.86
2022-10-20T15:57:33.197Z,17.78
2022-10-20T16:00:36.273Z,17.68
2022-10-20T16:03:43.257Z,17.62
2022-10-20T16:06:46.149Z,17.57
2022-10-20T16:09:48.894Z,17.54
2022-10-20T16:12:51.927Z,17.47
2022-10-20T16:15:54.678Z,17.36
2022-10-20T16:18:58.865Z,17.29
2022-10-20T16:22:01.572Z,17.29
2022-10-20T16:25:05.481Z,17.25
2022-10-20T16:31:34.924Z,17.18
2022-10-20T16:34:38.926Z,17.16
2022-10-20T16:37:43.465Z,17.16
2022-10-20T16:40:46.150Z,17.15
2022-10-20T16:43:49.054Z,17.02
2022-10-20T16:46:51.934Z,17.07
2022-10-20T16:49:55.955Z,17.09
2022-10-20T16:53:01.459Z,17.06
2022-10-20T16:56:04.548Z,16.98
2022-10-20T16:59:07.184Z,16.99
2022-10-20T17:02:11.526Z,17.05
2022-10-20T17:05:16.573Z,17.05
2022-10-20T17:08:19.326Z,17.01
2022-10-20T17:11:24.242Z,16.97
2022-10-20T17:14:27.081Z,17.02
2022-10-20T17:17:29.996Z,16.99
2022-10-20T17:20:38.214Z,16.97
2022-10-20T17:23:43.132Z,16.98
2022-10-20T17:26:45.802Z,16.99
2022-10-20T17:29:48.512Z,17.04
2022-10-20T17:32:51.285Z,17.02
2022-10-20T17:35:56.166Z,16.99
2022-10-20T17:39:00.759Z,16.97
2022-10-20T17:42:03.428Z,16.96
2022-10-20T17:45:07.075Z,16.90
2022-10-20T17:48:10.897Z,16.83
2022-10-20T17:51:16.103Z,16.82
2022-10-20T17:54:18.783Z,16.75
2022-10-20T17:57:21.482Z,16.68
2022-10-20T18:00:43.946Z,16.75
2022-10-20T18:03:48.285Z,16.77
2022-10-20T18:06:52.830Z,16.76
2022-10-20T18:09:55.627Z,16.73
2022-10-20T18:12:58.478Z,16.69
2022-10-20T18:16:04.830Z,16.72
2022-10-20T18:19:14.250Z,16.73
2022-10-20T18:22:18.422Z,16.69
2022-10-20T18:25:21.248Z,16.72
2022-10-20T18:28:25.127Z,16.66
2022-10-20T18:31:30.591Z,16.67
2022-10-20T18:34:33.347Z,16.75
2022-10-20T18:37:37.736Z,16.78
2022-10-20T18:40:40.808Z,16.71
2022-10-20T18:43:45.373Z,16.56
2022-10-20T18:46:48.600Z,16.42
2022-10-20T18:49:51.126Z,16.36
2022-10-20T18:52:55.517Z,16.34
2022-10-20T18:56:01.825Z,16.46
2022-10-20T18:59:06.313Z,16.47
2022-10-20T19:02:11.269Z,16.48
2022-10-20T19:05:13.877Z,16.43
2022-10-20T19:08:17.961Z,16.38
2022-10-20T19:11:22.263Z,16.33
2022-10-20T19:14:25.124Z,16.31
2022-10-20T19:17:27.866Z,16.25
2022-10-20T19:20:31.160Z,16.24
2022-10-20T19:23:36.920Z,16.17
2022-10-20T19:26:41.052Z,16.17
2022-10-20T19:29:43.839Z,16.18
2022-10-20T19:32:51.354Z,16.20
2022-10-20T19:35:54.177Z,16.17
2022-10-20T19:38:58.499Z,16.16
2022-10-20T19:42:03.726Z,16.10
2022-10-20T19:45:07.290Z,16.08
2022-10-20T19:48:09.894Z,16.11
2022-10-20T19:51:12.793Z,16.09
2022-10-20T19:54:16.841Z,16.05
2022-10-20T19:57:19.487Z,16.06
2022-10-20T20:00:22.158Z,16.15
2022-10-20T20:03:24.919Z,16.14
2022-10-20T20:06:28.792Z,16.13
2022-10-20T20:09:32.756Z,16.08
2022-10-20T20:12:35.329Z,16.09
2022-10-20T20:15:37.941Z,16.05
2022-10-20T20:18:41.087Z,16.03
2022-10-20T20:21:44.133Z,16.05
2022-10-20T20:24:48.355Z,16.15
2022-10-20T20:27:51.113Z,16.13
2022-10-20T20:31:00.252Z,16.13
2022-10-20T20:34:03.430Z,16.15
2022-10-20T20:37:06.270Z,16.15
2022-10-20T20:40:11.402Z,16.11
2022-10-20T20:43:14.109Z,16.14
2022-10-20T20:46:19.572Z,16.09
2022-10-20T20:49:22.369Z,16.08
2022-10-20T20:52:26.024Z,16.14
2022-10-20T20:55:30.232Z,16.11
2022-10-20T20:58:33.330Z,16.13
2022-10-20T21:01:36.126Z,16.19
2022-10-20T21:04:38.864Z,16.21
2022-10-20T21:07:41.607Z,16.24
2022-10-20T21:10:46.088Z,16.20
2022-10-20T21:13:50.512Z,16.17
2022-10-20T21:16:53.399Z,16.18
2022-10-20T21:19:56.083Z,16.21
2022-10-20T21:22:58.906Z,16.26
2022-10-20T21:26:03.325Z,16.31
2022-10-20T21:29:06.547Z,16.17
2022-10-20T21:32:09.294Z,15.97
2022-10-20T21:35:12.001Z,15.77
2022-10-20T21:38:14.904Z,15.73
2022-10-20T21:41:20.065Z,15.66
2022-10-20T21:44:22.731Z,15.59
2022-10-20T21:47:25.689Z,15.53
2022-10-20T21:50:28.480Z,15.43
2022-10-20T21:53:31.283Z,15.27
2022-10-20T21:56:37.270Z,15.19
2022-10-20T21:59:39.916Z,15.33
2022-10-20T22:02:42.806Z,15.43
2022-10-20T22:05:45.604Z,15.43
2022-10-20T22:08:49.915Z,15.33
2022-10-20T22:11:56.649Z,15.29
2022-10-20T22:14:59.374Z,15.29
2022-10-20T22:18:02.150Z,15.37
2022-10-20T22:21:06.730Z,15.38
2022-10-20T22:24:11.504Z,15.47
2022-10-20T22:27:25.286Z,15.61
2022-10-20T22:30:37.993Z,15.66
2022-10-20T22:33:40.587Z,15.57
2022-10-20T22:36:44.407Z,15.38
2022-10-20T22:39:47.246Z,15.20
2022-10-20T22:42:51.317Z,15.18
2022-10-20T22:45:54.124Z,15.19
2022-10-20T22:48:56.664Z,15.18
2022-10-20T22:51:59.463Z,15.18
2022-10-20T22:55:02.123Z,15.11
2022-10-20T22:58:06.180Z,14.93
2022-10-20T23:01:10.822Z,14.80
2022-10-20T23:04:13.616Z,14.82
2022-10-20T23:07:16.297Z,14.66
2022-10-20T23:10:19.373Z,14.61
2022-10-20T23:13:23.582Z,14.54
2022-10-20T23:16:26.593Z,14.43
2022-10-20T23:19:29.390Z,14.38
2022-10-20T23:22:32.165Z,14.30
2022-10-20T23:28:40.123Z,14.13
2022-10-20T23:31:42.736Z,14.14
2022-10-20T23:34:45.542Z,14.03
2022-10-20T23:37:48.253Z,14.13
2022-10-20T23:40:50.794Z,14.08
2022-10-20T23:43:54.766Z,14.00
2022-10-20T23:46:57.487Z,14.00
2022-10-20T23:50:00.204Z,14.01
2022-10-20T23:53:03.128Z,13.96
2022-10-20T23:56:06.183Z,13.85
2022-10-20T23:59:10.639Z,13.85
